createdAt,value
2018-09-03T00:00:18.106Z,18.35
2018-09-03T00:02:47.810Z,17.67
2018-09-03T00:05:17.534Z,13.23
2018-09-03T00:07:47.202Z,18.32
2018-09-03T00:10:17.284Z,17.27
2018-09-03T00:12:47.144Z,14.87
2018-09-03T00:15:16.785Z,17.40
2018-09-03T00:17:46.426Z,15.10
2018-09-03T00:20:16.097Z,19.30
2018-09-03T00:22:45.828Z,19.93
2018-09-03T00:25:15.437Z,19.40
2018-09-03T00:27:45.044Z,17.73
2018-09-03T00:30:14.901Z,19.10
2018-09-03T00:32:49.640Z,16.47
2018-09-03T00:35:24.298Z,19.47
2018-09-03T00:37:58.882Z,17.37
2018-09-03T00:40:33.599Z,11.83
2018-09-03T00:43:08.313Z,16.82
2018-09-03T00:45:42.924Z,16.63
2018-09-03T00:48:12.599Z,16.52
2018-09-03T00:50:42.696Z,17.97
2018-09-03T00:53:12.116Z,16.00
2018-09-03T00:55:41.740Z,18.97
2018-09-03T00:58:11.488Z,16.70
2018-09-03T01:00:41.018Z,11.63
2018-09-03T01:03:10.744Z,19.20
2018-09-03T01:05:40.480Z,17.47
2018-09-03T01:08:10.103Z,16.27
2018-09-03T01:10:39.812Z,17.23
2018-09-03T01:13:09.476Z,19.27
2018-09-03T01:15:39.092Z,16.97
2018-09-03T01:18:08.784Z,15.20
2018-09-03T01:20:38.506Z,16.13
2018-09-03T01:23:08.211Z,15.57
2018-09-03T01:25:37.993Z,21.93
2018-09-03T01:28:07.542Z,19.32
2018-09-03T01:30:37.151Z,17.82
2018-09-03T01:33:06.752Z,15.10
2018-09-03T01:35:36.423Z,19.30
2018-09-03T01:38:06.609Z,18.33
2018-09-03T01:40:36.237Z,18.10
2018-09-03T01:43:05.922Z,19.77
2018-09-03T01:45:35.607Z,18.12
2018-09-03T01:48:05.565Z,18.55
2018-09-03T01:50:35.088Z,14.70
2018-09-03T01:53:04.973Z,17.43
2018-09-03T01:55:34.592Z,15.00
2018-09-03T01:58:04.227Z,16.52
2018-09-03T02:00:33.810Z,19.17
2018-09-03T02:03:03.469Z,17.50
2018-09-03T02:05:33.127Z,17.87
2018-09-03T02:08:02.883Z,18.77
2018-09-03T02:10:32.625Z,18.73
2018-09-03T02:13:02.314Z,18.20
2018-09-03T02:15:32.094Z,17.73
2018-09-03T02:18:01.868Z,21.82
2018-09-03T02:20:31.499Z,18.27
2018-09-03T02:23:01.715Z,19.57
2018-09-03T02:25:31.327Z,15.53
2018-09-03T02:28:01.064Z,38.73
2018-09-03T02:30:30.775Z,21.97
2018-09-03T02:33:00.622Z,22.93
2018-09-03T02:35:30.616Z,15.83
2018-09-03T02:38:00.246Z,19.07
2018-09-03T02:40:29.835Z,15.10
2018-09-03T02:42:59.763Z,17.37
2018-09-03T02:45:29.776Z,15.90
2018-09-03T02:47:59.914Z,15.57
2018-09-03T02:50:29.619Z,18.13
2018-09-03T02:52:59.358Z,19.03
2018-09-03T02:55:28.982Z,17.83
2018-09-03T02:57:58.675Z,15.90
2018-09-03T03:00:28.589Z,18.80
2018-09-03T03:02:59.390Z,19.10
2018-09-03T03:05:29.748Z,20.40
2018-09-03T03:07:59.491Z,20.13
2018-09-03T03:10:29.146Z,18.87
2018-09-03T03:12:58.690Z,17.33
2018-09-03T03:15:28.861Z,19.57
2018-09-03T03:17:58.682Z,15.60
2018-09-03T03:20:28.479Z,15.23
2018-09-03T03:22:58.358Z,18.07
2018-09-03T03:25:28.039Z,19.00
2018-09-03T03:27:57.663Z,20.27
2018-09-03T03:30:27.341Z,20.83
2018-09-03T03:32:57.041Z,18.13
2018-09-03T03:35:26.626Z,23.50
2018-09-03T03:37:56.282Z,22.40
2018-09-03T03:40:25.919Z,23.37
2018-09-03T03:42:55.688Z,19.97
2018-09-03T03:45:25.338Z,20.53
2018-09-03T03:47:55.070Z,24.83
2018-09-03T03:50:24.751Z,27.43
2018-09-03T03:52:54.461Z,21.67
2018-09-03T03:55:24.336Z,21.87
2018-09-03T03:57:54.227Z,22.50
2018-09-03T04:00:23.833Z,21.10
2018-09-03T04:02:53.648Z,21.97
2018-09-03T04:05:23.252Z,16.37
2018-09-03T04:07:52.825Z,15.87
2018-09-03T04:10:22.675Z,18.90
2018-09-03T04:12:54.365Z,17.53
2018-09-03T04:15:24.659Z,17.23
2018-09-03T04:17:54.630Z,20.70
2018-09-03T04:20:24.478Z,20.43
2018-09-03T04:22:54.218Z,16.37
2018-09-03T04:25:23.970Z,21.67
2018-09-03T04:27:54.234Z,29.93
2018-09-03T04:30:24.069Z,22.97
2018-09-03T04:32:54.577Z,18.03
2018-09-03T04:35:24.474Z,24.97
2018-09-03T04:37:54.184Z,22.77
2018-09-03T04:40:23.931Z,26.23
2018-09-03T04:42:53.740Z,25.40
2018-09-03T04:45:23.480Z,22.23
2018-09-03T04:47:53.084Z,17.73
2018-09-03T04:50:22.849Z,22.90
2018-09-03T04:52:52.456Z,17.63
2018-09-03T04:55:22.208Z,22.80
2018-09-03T04:57:51.765Z,18.77
2018-09-03T05:00:21.328Z,16.83
2018-09-03T05:02:51.051Z,22.77
2018-09-03T05:05:20.787Z,18.67
2018-09-03T05:07:50.566Z,19.17
2018-09-03T05:10:20.210Z,22.00
2018-09-03T05:12:53.304Z,18.33
2018-09-03T05:15:22.942Z,15.63
2018-09-03T05:17:52.663Z,26.00
2018-09-03T05:20:22.488Z,19.23
2018-09-03T05:22:52.308Z,16.97
2018-09-03T05:25:22.158Z,18.97
2018-09-03T05:27:51.853Z,19.87
2018-09-03T05:30:21.438Z,20.20
2018-09-03T05:32:51.100Z,19.83
2018-09-03T05:35:21.118Z,20.60
2018-09-03T05:37:51.056Z,23.10
2018-09-03T05:40:20.784Z,20.50
2018-09-03T05:42:50.392Z,19.10
2018-09-03T05:45:20.263Z,20.10
2018-09-03T05:47:49.852Z,16.10
2018-09-03T05:50:19.549Z,16.00
2018-09-03T05:52:49.118Z,19.13
2018-09-03T05:55:18.891Z,20.53
2018-09-03T05:57:48.375Z,16.43
2018-09-03T06:00:17.957Z,16.33
2018-09-03T06:02:47.613Z,17.63
2018-09-03T06:05:17.220Z,17.20
2018-09-03T06:07:47.298Z,20.63
2018-09-03T06:10:17.058Z,16.00
2018-09-03T06:12:46.760Z,17.47
2018-09-03T06:15:16.386Z,15.97
2018-09-03T06:17:46.075Z,14.10
2018-09-03T06:20:15.882Z,15.07
2018-09-03T06:22:45.849Z,17.20
2018-09-03T06:25:15.561Z,19.23
2018-09-03T06:27:45.222Z,18.90
2018-09-03T06:30:14.927Z,15.70
2018-09-03T06:32:44.798Z,42.83
2018-09-03T06:35:14.438Z,19.40
2018-09-03T06:37:43.988Z,15.80
2018-09-03T06:40:13.678Z,16.73
2018-09-03T06:42:43.383Z,15.07
2018-09-03T06:45:13.314Z,28.43
2018-09-03T06:47:43.469Z,15.37
2018-09-03T06:50:13.280Z,13.57
2018-09-03T06:52:42.978Z,20.07
2018-09-03T06:55:12.674Z,15.43
2018-09-03T06:57:42.554Z,27.97
2018-09-03T07:00:12.373Z,30.23
2018-09-03T07:02:42.971Z,16.83
2018-09-03T07:05:13.166Z,27.57
2018-09-03T07:07:43.112Z,29.37
2018-09-03T07:10:12.846Z,26.53
2018-09-03T07:12:42.781Z,21.17
2018-09-03T07:15:12.905Z,15.37
2018-09-03T07:17:42.629Z,16.47
2018-09-03T07:20:12.322Z,11.00
2018-09-03T07:22:41.826Z,13.77
2018-09-03T07:25:11.554Z,12.37
2018-09-03T07:27:41.130Z,13.83
2018-09-03T07:30:10.786Z,14.80
2018-09-03T07:32:40.498Z,11.50
2018-09-03T07:35:10.189Z,10.73
2018-09-03T07:37:39.799Z,10.07
2018-09-03T07:40:09.649Z,10.20
2018-09-03T07:42:39.826Z,11.07
2018-09-03T07:45:09.670Z,10.10
2018-09-03T07:47:39.314Z,17.33
2018-09-03T07:50:09.163Z,10.90
2018-09-03T07:52:38.771Z,18.77
2018-09-03T07:55:08.689Z,15.60
2018-09-03T07:57:38.567Z,12.03
2018-09-03T08:00:08.653Z,11.67
2018-09-03T08:02:38.303Z,11.17
2018-09-03T08:05:08.484Z,13.30
2018-09-03T08:07:38.263Z,13.40
2018-09-03T08:10:09.606Z,9.37
2018-09-03T08:12:39.729Z,11.70
2018-09-03T08:15:09.789Z,13.87
2018-09-03T08:17:39.788Z,13.60
2018-09-03T08:20:09.726Z,14.43
2018-09-03T08:22:39.322Z,15.03
2018-09-03T08:25:09.082Z,10.97
2018-09-03T08:27:38.899Z,10.80
2018-09-03T08:30:09.575Z,14.37
2018-09-03T08:32:39.304Z,11.50
2018-09-03T08:35:09.059Z,8.63
2018-09-03T08:37:39.180Z,7.77
2018-09-03T08:40:08.800Z,9.73
2018-09-03T08:42:38.609Z,10.13
2018-09-03T08:45:08.544Z,12.50
2018-09-03T08:47:38.213Z,8.77
2018-09-03T08:50:07.836Z,10.43
2018-09-03T08:52:37.566Z,17.10
2018-09-03T08:55:07.563Z,9.90
2018-09-03T08:57:37.328Z,14.77
2018-09-03T09:00:07.578Z,14.53
2018-09-03T09:02:37.581Z,20.27
2018-09-03T09:05:07.326Z,9.23
2018-09-03T09:07:37.319Z,8.17
2018-09-03T09:10:07.033Z,8.00
2018-09-03T09:12:36.741Z,12.20
2018-09-03T09:15:06.989Z,11.77
2018-09-03T09:17:36.638Z,11.17
2018-09-03T09:20:06.440Z,12.47
2018-09-03T09:22:36.201Z,9.97
2018-09-03T09:25:06.272Z,10.60
2018-09-03T09:27:35.942Z,8.63
2018-09-03T09:30:06.446Z,9.40
2018-09-03T09:32:36.369Z,8.87
2018-09-03T09:35:06.348Z,9.67
2018-09-03T09:37:35.908Z,13.80
2018-09-03T09:40:05.571Z,11.47
2018-09-03T09:42:35.353Z,10.40
2018-09-03T09:45:05.222Z,11.07
2018-09-03T09:47:34.790Z,11.22
2018-09-03T09:50:04.527Z,13.25
2018-09-03T09:52:34.923Z,9.73
2018-09-03T09:55:04.979Z,10.47
2018-09-03T09:57:35.040Z,9.13
2018-09-03T10:00:05.132Z,13.03
2018-09-03T10:02:34.723Z,8.58
2018-09-03T10:05:05.032Z,18.00
2018-09-03T10:07:34.992Z,13.25
2018-09-03T10:10:04.877Z,10.60
2018-09-03T10:12:34.975Z,8.20
2018-09-03T10:15:05.062Z,13.07
2018-09-03T10:17:34.644Z,10.77
2018-09-03T10:20:04.400Z,10.27
2018-09-03T10:22:33.971Z,10.45
2018-09-03T10:25:03.682Z,8.40
2018-09-03T10:27:33.448Z,10.27
2018-09-03T10:30:03.234Z,8.67
2018-09-03T10:32:34.071Z,11.78
2018-09-03T10:35:03.950Z,12.40
2018-09-03T10:37:33.719Z,9.27
2018-09-03T10:40:03.600Z,11.30
2018-09-03T10:42:33.753Z,9.75
2018-09-03T10:45:03.632Z,10.37
2018-09-03T10:47:34.005Z,8.00
2018-09-03T10:50:04.226Z,13.00
2018-09-03T10:52:34.506Z,9.63
2018-09-03T10:55:04.524Z,10.10
2018-09-03T10:57:34.704Z,8.80
2018-09-03T11:00:04.899Z,10.60
2018-09-03T11:02:34.901Z,8.10
2018-09-03T11:05:04.906Z,8.23
2018-09-03T11:07:34.657Z,7.47
2018-09-03T11:10:04.491Z,9.08
2018-09-03T11:12:34.380Z,10.00
2018-09-03T11:15:04.162Z,8.23
2018-09-03T11:17:33.867Z,8.70
2018-09-03T11:20:05.931Z,11.20
2018-09-03T11:22:35.610Z,10.00
2018-09-03T11:25:05.347Z,9.47
2018-09-03T11:27:35.223Z,7.93
2018-09-03T11:30:05.419Z,9.23
2018-09-03T11:32:35.000Z,11.57
2018-09-03T11:35:04.826Z,9.65
2018-09-03T11:37:34.660Z,7.45
2018-09-03T11:40:04.782Z,11.50
2018-09-03T11:42:34.503Z,9.30
2018-09-03T11:45:04.047Z,12.00
2018-09-03T11:47:34.053Z,11.20
2018-09-03T11:50:03.733Z,11.10
2018-09-03T11:52:33.564Z,8.70
2018-09-03T11:55:03.221Z,11.37
2018-09-03T11:57:32.954Z,13.77
2018-09-03T12:00:02.786Z,7.93
2018-09-03T12:02:32.324Z,12.70
2018-09-03T12:05:02.137Z,8.87
2018-09-03T12:07:32.008Z,14.07
2018-09-03T12:10:01.825Z,11.33
2018-09-03T12:12:31.644Z,14.83
2018-09-03T12:15:04.667Z,7.97
2018-09-03T12:17:34.380Z,12.63
2018-09-03T12:20:03.902Z,15.27
2018-09-03T12:22:33.440Z,9.88
2018-09-03T12:25:03.135Z,14.10
2018-09-03T12:27:32.745Z,13.58
2018-09-03T12:30:02.473Z,10.97
2018-09-03T12:32:32.140Z,11.53
2018-09-03T12:35:02.008Z,13.17
2018-09-03T12:37:31.745Z,11.33
2018-09-03T12:40:01.415Z,8.33
2018-09-03T12:42:31.193Z,8.53
2018-09-03T12:45:00.825Z,11.83
2018-09-03T12:47:30.809Z,21.20
2018-09-03T12:50:00.477Z,11.03
2018-09-03T12:52:30.355Z,13.00
2018-09-03T12:54:59.894Z,20.27
2018-09-03T12:57:29.684Z,11.27
2018-09-03T13:00:05.146Z,12.00
2018-09-03T13:02:29.175Z,12.03
2018-09-03T13:04:59.158Z,17.27
2018-09-03T13:07:28.880Z,12.03
2018-09-03T13:09:58.461Z,18.57
2018-09-03T13:12:28.290Z,12.40
2018-09-03T13:14:57.881Z,13.73
2018-09-03T13:17:27.589Z,11.18
2018-09-03T13:19:57.161Z,14.75
2018-09-03T13:22:27.499Z,14.53
2018-09-03T13:24:57.323Z,15.93
2018-09-03T13:27:27.095Z,16.77
2018-09-03T13:29:56.938Z,13.10
2018-09-03T13:32:26.715Z,13.45
2018-09-03T13:34:56.383Z,10.80
2018-09-03T13:37:26.926Z,12.57
2018-09-03T13:39:56.579Z,12.43
2018-09-03T13:42:26.380Z,12.93
2018-09-03T13:44:56.039Z,11.70
2018-09-03T13:47:26.104Z,9.43
2018-09-03T13:49:56.438Z,11.83
2018-09-03T13:52:26.145Z,16.03
2018-09-03T13:54:55.917Z,11.60
2018-09-03T13:57:25.632Z,18.00
2018-09-03T13:59:55.618Z,13.93
2018-09-03T14:02:25.454Z,13.07
2018-09-03T14:04:55.429Z,12.53
2018-09-03T14:07:25.247Z,14.03
2018-09-03T14:09:55.230Z,14.47
2018-09-03T14:12:24.988Z,16.30
2018-09-03T14:14:54.661Z,16.20
2018-09-03T14:17:24.619Z,14.27
2018-09-03T14:19:54.452Z,14.27
2018-09-03T14:22:24.193Z,16.43
2018-09-03T14:24:53.918Z,14.90
2018-09-03T14:27:23.600Z,13.00
2018-09-03T14:29:53.586Z,11.17
2018-09-03T14:32:23.451Z,16.50
2018-09-03T14:34:53.132Z,18.17
2018-09-03T14:37:23.038Z,12.43
2018-09-03T14:39:52.720Z,13.00
2018-09-03T14:42:22.435Z,17.40
2018-09-03T14:44:52.356Z,18.60
2018-09-03T14:47:22.084Z,11.87
2018-09-03T14:49:52.354Z,18.30
2018-09-03T14:52:22.340Z,21.00
2018-09-03T14:54:51.959Z,19.90
2018-09-03T14:57:21.604Z,19.97
2018-09-03T14:59:51.465Z,17.10
2018-09-03T15:02:21.225Z,12.40
2018-09-03T15:04:51.124Z,16.32
2018-09-03T15:07:20.968Z,19.47
2018-09-03T15:09:50.575Z,17.70
2018-09-03T15:12:20.426Z,15.17
2018-09-03T15:14:50.229Z,14.43
2018-09-03T15:17:19.955Z,17.13
2018-09-03T15:19:49.619Z,13.57
2018-09-03T15:22:19.583Z,13.30
2018-09-03T15:24:49.580Z,15.28
2018-09-03T15:27:19.316Z,17.47
2018-09-03T15:29:49.117Z,12.07
2018-09-03T15:32:18.896Z,16.13
2018-09-03T15:34:48.783Z,13.03
2018-09-03T15:37:18.772Z,14.73
2018-09-03T15:39:48.571Z,14.60
2018-09-03T15:42:18.285Z,26.17
2018-09-03T15:44:48.181Z,20.45
2018-09-03T15:47:17.828Z,13.87
2018-09-03T15:49:47.739Z,17.82
2018-09-03T15:52:18.622Z,15.37
2018-09-03T15:54:48.339Z,22.43
2018-09-03T15:57:18.211Z,18.33
2018-09-03T15:59:47.920Z,17.43
2018-09-03T16:02:17.776Z,21.90
2018-09-03T16:04:47.471Z,17.50
2018-09-03T16:07:17.138Z,14.43
2018-09-03T16:09:46.758Z,16.20
2018-09-03T16:12:16.446Z,14.40
2018-09-03T16:14:46.123Z,16.97
2018-09-03T16:17:15.732Z,17.27
2018-09-03T16:19:45.503Z,26.27
2018-09-03T16:22:15.287Z,24.93
2018-09-03T16:24:45.097Z,23.67
2018-09-03T16:27:15.075Z,17.43
2018-09-03T16:29:44.915Z,16.43
2018-09-03T16:32:14.598Z,13.07
2018-09-03T16:34:44.355Z,22.70
2018-09-03T16:37:13.997Z,18.37
2018-09-03T16:39:43.830Z,13.63
2018-09-03T16:42:13.531Z,18.60
2018-09-03T16:44:43.188Z,21.40
2018-09-03T16:47:12.870Z,19.83
2018-09-03T16:49:42.643Z,42.00
2018-09-03T16:52:12.338Z,57.87
2018-09-03T16:54:42.196Z,34.63
2018-09-03T16:57:11.910Z,28.25
2018-09-03T16:59:41.594Z,33.50
2018-09-03T17:02:11.575Z,36.58
2018-09-03T17:04:41.384Z,29.73
2018-09-03T17:07:11.060Z,23.17
2018-09-03T17:09:40.721Z,25.45
2018-09-03T17:12:10.466Z,22.30
2018-09-03T17:14:40.325Z,22.87
2018-09-03T17:17:10.067Z,25.57
2018-09-03T17:19:39.832Z,23.13
2018-09-03T17:22:09.729Z,28.42
2018-09-03T17:24:39.625Z,27.30
2018-09-03T17:27:09.803Z,27.17
2018-09-03T17:29:39.579Z,24.67
2018-09-03T17:32:09.323Z,34.13
2018-09-03T17:34:39.052Z,28.00
2018-09-03T17:37:09.101Z,26.97
2018-09-03T17:39:38.751Z,21.93
2018-09-03T17:42:08.577Z,24.87
2018-09-03T17:44:38.481Z,22.57
2018-09-03T17:47:08.316Z,27.77
2018-09-03T17:49:38.440Z,20.03
2018-09-03T17:52:08.235Z,24.13
2018-09-03T17:54:38.133Z,28.53
2018-09-03T17:57:07.985Z,24.73
2018-09-03T17:59:37.787Z,24.87
2018-09-03T18:02:07.614Z,31.67
2018-09-03T18:04:37.389Z,25.73
2018-09-03T18:07:07.278Z,21.30
2018-09-03T18:09:37.082Z,14.50
2018-09-03T18:12:06.898Z,18.70
2018-09-03T18:14:36.870Z,19.20
2018-09-03T18:17:06.845Z,28.23
2018-09-03T18:19:36.738Z,29.60
2018-09-03T18:22:06.706Z,19.07
2018-09-03T18:24:36.559Z,12.97
2018-09-03T18:27:06.461Z,13.67
2018-09-03T18:29:36.371Z,25.83
2018-09-03T18:32:06.743Z,21.37
2018-09-03T18:34:36.732Z,23.37
2018-09-03T18:37:06.851Z,18.90
2018-09-03T18:39:36.771Z,21.03
2018-09-03T18:42:06.707Z,17.93
2018-09-03T18:44:36.807Z,22.65
2018-09-03T18:47:07.115Z,17.35
2018-09-03T18:49:37.086Z,20.15
2018-09-03T18:52:07.040Z,18.57
2018-09-03T18:54:36.734Z,21.25
2018-09-03T18:57:06.389Z,19.37
2018-09-03T18:59:36.094Z,22.23
2018-09-03T19:02:05.881Z,24.50
2018-09-03T19:04:35.668Z,20.55
2018-09-03T19:07:05.452Z,22.77
2018-09-03T19:09:35.319Z,22.33
2018-09-03T19:12:05.034Z,20.87
2018-09-03T19:14:34.741Z,20.97
2018-09-03T19:17:04.568Z,22.13
2018-09-03T19:19:34.336Z,18.50
2018-09-03T19:22:03.876Z,17.57
2018-09-03T19:24:33.748Z,25.13
2018-09-03T19:27:03.762Z,19.67
2018-09-03T19:29:33.429Z,13.97
2018-09-03T19:32:03.063Z,28.23
2018-09-03T19:34:32.598Z,22.90
2018-09-03T19:37:02.531Z,19.57
2018-09-03T19:39:32.385Z,18.37
2018-09-03T19:42:02.012Z,23.20
2018-09-03T19:44:31.692Z,27.87
2018-09-03T19:47:01.427Z,26.52
2018-09-03T19:49:31.048Z,22.80
2018-09-03T19:52:00.825Z,25.70
2018-09-03T19:54:30.924Z,26.83
2018-09-03T19:57:00.475Z,23.20
2018-09-03T19:59:30.268Z,24.25
2018-09-03T20:01:59.905Z,24.97
2018-09-03T20:04:29.667Z,24.30
2018-09-03T20:06:59.406Z,25.03
2018-09-03T20:09:29.169Z,27.83
2018-09-03T20:11:59.045Z,26.87
2018-09-03T20:14:28.962Z,27.48
2018-09-03T20:16:58.699Z,26.47
2018-09-03T20:19:28.371Z,25.23
2018-09-03T20:21:58.259Z,26.27
2018-09-03T20:24:28.632Z,28.97
2018-09-03T20:26:58.544Z,25.60
2018-09-03T20:29:28.160Z,27.32
2018-09-03T20:31:58.132Z,23.33
2018-09-03T20:34:27.792Z,24.60
2018-09-03T20:36:57.423Z,26.50
2018-09-03T20:39:27.134Z,27.70
2018-09-03T20:41:56.934Z,31.37
2018-09-03T20:44:26.729Z,26.93
2018-09-03T20:46:56.480Z,24.60
2018-09-03T20:49:26.195Z,32.00
2018-09-03T20:51:55.897Z,30.95
2018-09-03T20:56:55.652Z,25.72
2018-09-03T20:59:25.472Z,29.32
2018-09-03T21:01:55.378Z,28.43
2018-09-03T21:04:24.979Z,28.33
2018-09-03T21:06:54.542Z,30.00
2018-09-03T21:09:24.213Z,33.33
2018-09-03T21:11:54.008Z,34.18
2018-09-03T21:14:23.700Z,27.82
2018-09-03T21:16:53.512Z,26.60
2018-09-03T21:19:23.102Z,31.07
2018-09-03T21:21:52.818Z,27.90
2018-09-03T21:24:22.515Z,27.20
2018-09-03T21:26:52.128Z,26.73
2018-09-03T21:29:21.973Z,22.77
2018-09-03T21:31:51.681Z,26.67
2018-09-03T21:34:21.385Z,26.25
2018-09-03T21:36:51.014Z,24.43
2018-09-03T21:39:20.741Z,28.95
2018-09-03T21:41:50.422Z,26.52
2018-09-03T21:44:20.202Z,25.70
2018-09-03T21:46:49.993Z,26.00
2018-09-03T21:49:19.836Z,25.27
2018-09-03T21:51:49.312Z,23.07
2018-09-03T21:54:19.023Z,22.20
2018-09-03T21:56:48.779Z,26.37
2018-09-03T21:59:18.492Z,19.65
2018-09-03T22:01:48.075Z,20.93
2018-09-03T22:04:17.691Z,20.68
2018-09-03T22:06:47.564Z,23.70
2018-09-03T22:09:17.463Z,22.62
2018-09-03T22:11:47.233Z,21.60
2018-09-03T22:14:16.887Z,22.37
2018-09-03T22:16:46.531Z,19.40
2018-09-03T22:19:16.456Z,20.50
2018-09-03T22:21:46.134Z,23.13
2018-09-03T22:24:16.062Z,20.97
2018-09-03T22:26:45.647Z,29.20
2018-09-03T22:29:15.469Z,20.75
2018-09-03T22:31:45.228Z,22.63
2018-09-03T22:34:15.249Z,23.75
2018-09-03T22:36:45.555Z,25.62
2018-09-03T22:39:15.562Z,24.37
2018-09-03T22:41:45.280Z,23.27
2018-09-03T22:44:14.982Z,25.35
2018-09-03T22:46:44.758Z,22.53
2018-09-03T22:49:14.592Z,23.65
2018-09-03T22:51:44.271Z,22.07
2018-09-03T22:54:13.951Z,23.95
2018-09-03T22:56:43.546Z,23.65
2018-09-03T22:59:13.096Z,25.77
2018-09-03T23:01:42.855Z,23.62
2018-09-03T23:04:12.976Z,24.33
2018-09-03T23:06:42.633Z,24.30
2018-09-03T23:09:12.256Z,25.63
2018-09-03T23:11:42.129Z,20.37
2018-09-03T23:14:11.687Z,21.53
2018-09-03T23:16:41.661Z,22.98
2018-09-03T23:19:11.201Z,19.35
2018-09-03T23:21:40.912Z,21.65
2018-09-03T23:24:10.487Z,18.73
2018-09-03T23:26:40.318Z,24.47
2018-09-03T23:29:10.288Z,24.05
2018-09-03T23:31:40.235Z,22.77
2018-09-03T23:34:10.112Z,23.42
2018-09-03T23:36:39.817Z,23.37
2018-09-03T23:39:09.684Z,21.93
2018-09-03T23:41:39.392Z,23.43
2018-09-03T23:44:09.084Z,24.13
2018-09-03T23:46:38.840Z,20.13
2018-09-03T23:49:08.831Z,23.20
2018-09-03T23:51:38.514Z,29.07
2018-09-03T23:54:08.367Z,33.18
2018-09-03T23:56:38.135Z,30.65
2018-09-03T23:59:07.828Z,29.93
